createdAt,value
2023-04-08T00:00:32.246Z,5.30
2023-04-08T00:02:59.203Z,5.30
2023-04-08T00:05:26.280Z,4.80
2023-04-08T00:07:54.098Z,4.30
2023-04-08T00:10:21.047Z,5.30
2023-04-08T00:12:48.765Z,5.00
2023-04-08T00:15:16.128Z,5.10
2023-04-08T00:17:42.884Z,4.90
2023-04-08T00:20:10.120Z,5.00
2023-04-08T00:22:37.059Z,4.90
2023-04-08T00:25:06.773Z,4.40
2023-04-08T00:27:33.869Z,4.80
2023-04-08T00:30:01.639Z,4.50
2023-04-08T00:32:29.360Z,4.60
2023-04-08T00:34:56.537Z,4.50
2023-04-08T00:37:24.945Z,4.50
2023-04-08T00:39:53.997Z,4.00
2023-04-08T00:42:22.101Z,4.50
2023-04-08T00:44:48.918Z,4.50
2023-04-08T00:47:16.601Z,4.40
2023-04-08T00:49:44.430Z,5.10
2023-04-08T00:52:11.586Z,3.90
2023-04-08T00:54:38.660Z,4.50
2023-04-08T00:57:06.310Z,3.90
2023-04-08T00:59:33.720Z,4.30
2023-04-08T01:02:42.188Z,4.40
2023-04-08T01:05:36.118Z,4.20
2023-04-08T01:08:07.034Z,4.20
2023-04-08T01:10:35.053Z,5.00
2023-04-08T01:15:41.332Z,4.10
2023-04-08T01:18:12.528Z,4.50
2023-04-08T01:20:41.972Z,4.10
2023-04-08T01:23:25.387Z,4.00
2023-04-08T01:25:53.993Z,4.00
2023-04-08T01:28:23.428Z,4.00
2023-04-08T01:30:51.708Z,4.00
2023-04-08T01:33:19.956Z,4.00
2023-04-08T01:35:46.896Z,3.90
2023-04-08T01:38:18.190Z,3.90
2023-04-08T01:40:46.234Z,4.90
2023-04-08T01:43:15.728Z,3.90
2023-04-08T01:45:45.533Z,3.90
2023-04-08T01:48:14.719Z,3.80
2023-04-08T01:50:45.619Z,3.80
2023-04-08T01:53:12.948Z,3.80
2023-04-08T01:55:41.545Z,4.00
2023-04-08T01:58:11.602Z,3.90
2023-04-08T02:00:41.020Z,4.40
2023-04-08T02:03:09.046Z,3.70
2023-04-08T02:05:36.057Z,3.70
2023-04-08T02:08:02.741Z,3.80
2023-04-08T02:10:30.779Z,3.70
2023-04-08T02:12:58.688Z,3.60
2023-04-08T02:15:28.945Z,3.40
2023-04-08T02:18:00.839Z,3.60
2023-04-08T02:20:37.697Z,3.60
2023-04-08T02:23:20.117Z,2.60
2023-04-08T02:25:48.156Z,3.60
2023-04-08T02:28:19.249Z,3.60
2023-04-08T02:30:50.438Z,3.50
2023-04-08T02:33:20.991Z,3.50
2023-04-08T02:35:50.547Z,3.50
2023-04-08T02:38:17.592Z,3.50
2023-04-08T02:40:44.324Z,3.50
2023-04-08T02:43:11.076Z,3.40
2023-04-08T02:45:44.655Z,3.40
2023-04-08T02:48:11.683Z,3.50
2023-04-08T02:50:39.180Z,3.40
2023-04-08T02:53:05.872Z,3.30
2023-04-08T02:55:32.594Z,3.40
2023-04-08T02:57:59.308Z,3.40
2023-04-08T03:00:26.288Z,3.40
2023-04-08T03:02:53.229Z,3.30
2023-04-08T03:05:20.427Z,3.30
2023-04-08T03:07:47.153Z,3.30
2023-04-08T03:10:14.005Z,3.30
2023-04-08T03:12:40.887Z,3.10
2023-04-08T03:15:08.169Z,3.20
2023-04-08T03:17:35.521Z,3.20
2023-04-08T03:20:05.100Z,3.10
2023-04-08T03:22:32.994Z,3.30
2023-04-08T03:25:00.104Z,3.30
2023-04-08T03:27:27.185Z,3.20
2023-04-08T03:29:53.969Z,3.00
2023-04-08T03:32:21.019Z,2.30
2023-04-08T03:34:49.668Z,2.90
2023-04-08T03:37:17.050Z,2.80
2023-04-08T03:39:43.811Z,2.90
2023-04-08T03:42:10.577Z,2.90
2023-04-08T03:44:39.338Z,2.90
2023-04-08T03:49:33.275Z,2.70
2023-04-08T03:51:59.981Z,2.70
2023-04-08T03:54:26.762Z,2.70
2023-04-08T03:56:54.652Z,2.60
2023-04-08T03:59:21.699Z,2.60
2023-04-08T04:01:48.747Z,2.60
2023-04-08T04:04:16.476Z,2.60
2023-04-08T04:06:43.396Z,2.60
2023-04-08T04:09:11.198Z,2.50
2023-04-08T04:11:38.369Z,2.50
2023-04-08T04:14:05.128Z,2.50
2023-04-08T04:19:00.286Z,2.40
2023-04-08T04:21:27.309Z,2.40
2023-04-08T04:23:54.189Z,2.40
2023-04-08T04:26:21.119Z,2.40
2023-04-08T04:28:49.353Z,2.30
2023-04-08T04:31:26.422Z,2.30
2023-04-08T04:33:53.894Z,2.30
2023-04-08T04:36:20.825Z,2.20
2023-04-08T04:38:50.061Z,2.20
2023-04-08T04:41:17.511Z,2.20
2023-04-08T04:43:44.594Z,2.20
2023-04-08T04:46:11.438Z,2.20
2023-04-08T04:48:38.253Z,2.20
2023-04-08T04:51:05.185Z,2.20
2023-04-08T04:53:32.035Z,2.10
2023-04-08T04:56:01.154Z,2.10
2023-04-08T04:58:28.248Z,2.10
2023-04-08T05:00:55.700Z,2.10
2023-04-08T05:03:22.615Z,2.10
2023-04-08T05:05:53.972Z,2.10
2023-04-08T05:08:22.115Z,2.10
2023-04-08T05:10:50.828Z,2.10
2023-04-08T05:13:18.663Z,2.10
2023-04-08T05:15:46.298Z,2.10
2023-04-08T05:18:13.327Z,2.10
2023-04-08T05:20:40.198Z,2.00
2023-04-08T05:23:07.899Z,2.10
2023-04-08T05:25:34.778Z,2.20
2023-04-08T05:28:01.531Z,2.20
2023-04-08T05:30:28.321Z,2.20
2023-04-08T05:32:56.578Z,2.20
2023-04-08T05:35:24.613Z,2.20
2023-04-08T05:37:51.413Z,2.20
2023-04-08T05:40:18.285Z,2.30
2023-04-08T05:42:45.290Z,2.30
2023-04-08T05:45:12.012Z,2.30
2023-04-08T05:47:38.783Z,2.30
2023-04-08T05:50:06.546Z,2.40
2023-04-08T05:52:33.434Z,2.40
2023-04-08T05:55:01.334Z,2.40
2023-04-08T05:57:28.036Z,2.40
2023-04-08T05:59:54.778Z,2.50
2023-04-08T06:02:21.663Z,2.60
2023-04-08T06:04:48.992Z,2.60
2023-04-08T06:07:15.871Z,2.70
2023-04-08T06:09:44.336Z,2.70
2023-04-08T06:12:12.171Z,2.80
2023-04-08T06:14:38.894Z,2.80
2023-04-08T06:17:06.307Z,2.90
2023-04-08T06:19:33.232Z,2.90
2023-04-08T06:22:02.597Z,3.00
2023-04-08T06:24:29.599Z,3.00
2023-04-08T06:26:56.676Z,3.10
2023-04-08T06:29:24.148Z,3.20
2023-04-08T06:31:51.308Z,3.20
2023-04-08T06:34:18.191Z,3.30
2023-04-08T06:36:45.076Z,3.50
2023-04-08T06:39:11.976Z,3.60
2023-04-08T06:41:39.836Z,3.70
2023-04-08T06:44:06.637Z,3.90
2023-04-08T06:46:33.492Z,4.00
2023-04-08T06:49:00.430Z,4.20
2023-04-08T06:51:27.947Z,4.30
2023-04-08T06:53:55.292Z,4.40
2023-04-08T06:56:23.026Z,4.60
2023-04-08T06:58:50.215Z,4.60
2023-04-08T07:01:17.499Z,4.70
2023-04-08T07:03:44.480Z,4.70
2023-04-08T07:06:11.522Z,4.70
2023-04-08T07:08:38.818Z,4.80
2023-04-08T07:11:06.970Z,4.80
2023-04-08T07:13:35.890Z,4.90
2023-04-08T07:16:03.162Z,5.10
2023-04-08T07:18:29.962Z,5.20
2023-04-08T07:20:58.064Z,5.40
2023-04-08T07:23:25.023Z,5.60
2023-04-08T07:25:52.538Z,5.70
2023-04-08T07:28:19.916Z,5.90
2023-04-08T07:30:47.208Z,5.90
2023-04-08T07:33:16.849Z,6.00
2023-04-08T07:35:43.873Z,6.20
2023-04-08T07:38:11.735Z,6.50
2023-04-08T07:40:38.736Z,7.10
2023-04-08T07:43:05.556Z,7.50
2023-04-08T07:45:33.314Z,8.30
2023-04-08T07:48:03.464Z,8.90
2023-04-08T07:50:32.714Z,9.50
2023-04-08T07:52:59.724Z,9.70
2023-04-08T07:55:26.738Z,10.10
2023-04-08T07:57:53.799Z,10.40
2023-04-08T08:00:21.858Z,10.60
2023-04-08T08:02:48.924Z,10.90
2023-04-08T08:05:16.221Z,11.20
2023-04-08T08:07:43.200Z,11.50
2023-04-08T08:10:10.987Z,11.50
2023-04-08T08:12:38.051Z,11.50
2023-04-08T08:15:05.395Z,11.90
2023-04-08T08:17:33.796Z,12.30
2023-04-08T08:20:01.463Z,12.60
2023-04-08T08:22:28.272Z,12.90
2023-04-08T08:24:59.312Z,13.10
2023-04-08T08:27:26.611Z,13.20
2023-04-08T08:29:53.407Z,13.30
2023-04-08T08:32:20.113Z,13.20
2023-04-08T08:34:46.921Z,13.50
2023-04-08T08:37:13.662Z,13.70
2023-04-08T08:39:40.368Z,13.70
2023-04-08T08:42:08.192Z,13.80
2023-04-08T08:44:34.899Z,14.00
2023-04-08T08:47:01.799Z,14.30
2023-04-08T08:49:28.645Z,14.40
2023-04-08T08:51:56.073Z,14.50
2023-04-08T08:54:23.173Z,14.60
2023-04-08T08:56:49.929Z,14.70
2023-04-08T08:59:16.704Z,14.90
2023-04-08T09:01:43.892Z,14.90
2023-04-08T09:04:15.865Z,14.70
2023-04-08T09:06:43.901Z,14.70
2023-04-08T09:09:10.985Z,14.60
2023-04-08T09:11:39.916Z,14.80
2023-04-08T09:14:18.012Z,15.10
2023-04-08T09:16:45.282Z,15.30
2023-04-08T09:19:12.372Z,15.40
2023-04-08T09:21:41.370Z,15.10
2023-04-08T09:24:09.750Z,15.00
2023-04-08T09:26:37.635Z,15.00
2023-04-08T09:29:25.112Z,15.00
2023-04-08T09:31:57.821Z,15.10
2023-04-08T09:34:25.631Z,15.10
2023-04-08T09:36:53.741Z,14.90
2023-04-08T09:39:20.865Z,14.70
2023-04-08T09:41:52.222Z,15.00
2023-04-08T09:44:24.740Z,15.00
2023-04-08T09:46:51.664Z,15.20
2023-04-08T09:49:43.487Z,15.20
2023-04-08T09:52:45.637Z,15.30
2023-04-08T09:55:14.360Z,15.30
2023-04-08T09:57:55.730Z,15.40
2023-04-08T10:00:28.756Z,15.20
2023-04-08T10:02:58.355Z,15.00
2023-04-08T10:05:25.993Z,14.70
2023-04-08T10:07:53.241Z,14.70
2023-04-08T10:10:21.096Z,14.50
2023-04-08T10:12:49.224Z,14.50
2023-04-08T10:15:26.317Z,14.60
2023-04-08T10:18:19.182Z,14.70
2023-04-08T10:20:47.656Z,14.60
2023-04-08T10:23:17.113Z,14.60
2023-04-08T10:25:48.195Z,14.70
2023-04-08T10:28:15.458Z,14.60
2023-04-08T10:30:44.973Z,14.50
2023-04-08T10:33:25.370Z,14.50
2023-04-08T10:36:12.185Z,14.50
2023-04-08T10:38:43.747Z,14.50
2023-04-08T10:41:11.616Z,14.50
2023-04-08T10:43:38.332Z,14.50
2023-04-08T10:46:05.625Z,14.40
2023-04-08T10:48:32.613Z,14.30
2023-04-08T10:51:04.121Z,14.40
2023-04-08T10:53:36.297Z,14.50
2023-04-08T10:56:13.515Z,14.60
2023-04-08T10:58:51.238Z,14.90
2023-04-08T11:01:20.085Z,14.90
2023-04-08T11:03:47.089Z,15.00
2023-04-08T11:06:14.220Z,15.10
2023-04-08T11:08:41.643Z,15.20
2023-04-08T11:11:11.857Z,15.30
2023-04-08T11:13:52.846Z,15.40
2023-04-08T11:16:22.745Z,15.40
2023-04-08T11:18:51.413Z,15.30
2023-04-08T11:21:18.478Z,15.20
2023-04-08T11:23:45.683Z,15.20
2023-04-08T11:26:13.605Z,15.20
2023-04-08T11:28:40.506Z,15.20
2023-04-08T11:31:09.074Z,15.20
2023-04-08T11:33:36.746Z,15.10
2023-04-08T11:36:04.745Z,15.20
2023-04-08T11:38:32.046Z,15.20
2023-04-08T11:40:59.944Z,15.10
2023-04-08T11:43:27.379Z,14.90
2023-04-08T11:45:54.236Z,14.80
2023-04-08T11:48:21.369Z,14.80
2023-04-08T11:50:48.516Z,14.70
2023-04-08T11:53:19.774Z,14.70
2023-04-08T11:55:47.342Z,14.60
2023-04-08T11:58:14.613Z,14.60
2023-04-08T12:00:41.643Z,14.50
2023-04-08T12:03:08.651Z,14.50
2023-04-08T12:05:35.855Z,14.40
2023-04-08T12:08:03.542Z,14.50
2023-04-08T12:10:30.628Z,14.50
2023-04-08T12:12:57.400Z,14.70
2023-04-08T12:15:24.331Z,14.80
2023-04-08T12:17:51.195Z,14.90
2023-04-08T12:20:20.870Z,14.80
2023-04-08T12:22:47.671Z,14.60
2023-04-08T12:25:14.609Z,14.30
2023-04-08T12:27:42.145Z,14.30
2023-04-08T12:30:09.622Z,14.30
2023-04-08T12:32:36.452Z,14.30
2023-04-08T12:35:03.312Z,14.30
2023-04-08T12:37:30.366Z,14.50
2023-04-08T12:39:57.504Z,14.60
2023-04-08T12:42:24.394Z,14.70
2023-04-08T12:44:51.179Z,14.80
2023-04-08T12:47:18.354Z,14.70
2023-04-08T12:52:14.838Z,14.90
2023-04-08T12:54:41.687Z,15.20
2023-04-08T12:57:08.885Z,14.90
2023-04-08T12:59:36.048Z,14.60
2023-04-08T13:02:03.012Z,14.90
2023-04-08T13:04:29.867Z,14.90
2023-04-08T13:06:57.089Z,15.10
2023-04-08T13:09:23.922Z,15.00
2023-04-08T13:11:50.634Z,15.10
2023-04-08T13:14:17.491Z,15.10
2023-04-08T13:16:44.425Z,15.50
2023-04-08T13:19:11.673Z,15.40
2023-04-08T13:21:38.350Z,15.50
2023-04-08T13:24:05.298Z,15.80
2023-04-08T13:26:32.045Z,15.90
2023-04-08T13:28:58.857Z,16.00
2023-04-08T13:31:26.113Z,16.10
2023-04-08T13:33:55.238Z,16.30
2023-04-08T13:36:23.843Z,16.50
2023-04-08T13:38:50.947Z,16.70
2023-04-08T13:41:17.781Z,16.70
2023-04-08T13:43:44.433Z,16.90
2023-04-08T13:46:11.696Z,17.10
2023-04-08T13:48:38.474Z,17.10
2023-04-08T13:51:05.532Z,17.10
2023-04-08T13:53:32.334Z,17.10
2023-04-08T13:55:59.252Z,17.20
2023-04-08T13:58:26.624Z,17.20
2023-04-08T14:00:53.461Z,17.10
2023-04-08T14:03:20.676Z,16.90
2023-04-08T14:05:47.600Z,16.70
2023-04-08T14:08:14.436Z,16.80
2023-04-08T14:10:42.343Z,16.60
2023-04-08T14:13:09.436Z,16.50
2023-04-08T14:15:36.478Z,16.30
2023-04-08T14:18:03.395Z,16.40
2023-04-08T14:20:30.178Z,16.40
2023-04-08T14:22:57.033Z,16.70
2023-04-08T14:25:24.274Z,16.80
2023-04-08T14:27:58.303Z,16.90
2023-04-08T14:30:27.216Z,17.10
2023-04-08T14:32:54.740Z,17.00
2023-04-08T14:35:21.852Z,17.20
2023-04-08T14:37:49.021Z,17.10
2023-04-08T14:40:15.916Z,17.10
2023-04-08T14:42:42.679Z,17.00
2023-04-08T14:45:09.834Z,17.10
2023-04-08T14:47:36.593Z,17.00
2023-04-08T14:50:03.357Z,17.10
2023-04-08T14:52:30.202Z,17.10
2023-04-08T14:54:56.973Z,17.30
2023-04-08T14:57:23.641Z,17.10
2023-04-08T14:59:51.318Z,16.90
2023-04-08T15:02:18.062Z,17.10
2023-04-08T15:04:44.931Z,16.90
2023-04-08T15:07:11.860Z,16.80
2023-04-08T15:09:38.607Z,16.60
2023-04-08T15:12:05.571Z,16.80
2023-04-08T15:14:32.353Z,16.80
2023-04-08T15:16:59.115Z,16.60
2023-04-08T15:19:25.963Z,16.70
2023-04-08T15:21:52.870Z,16.60
2023-04-08T15:24:22.953Z,16.60
2023-04-08T15:26:49.661Z,16.60
2023-04-08T15:29:17.044Z,16.80
2023-04-08T15:31:43.885Z,16.70
2023-04-08T15:34:10.915Z,16.80
2023-04-08T15:36:37.822Z,16.60
2023-04-08T15:39:06.112Z,16.50
2023-04-08T15:41:32.851Z,16.20
2023-04-08T15:43:59.601Z,16.00
2023-04-08T15:46:26.322Z,15.80
2023-04-08T15:48:53.264Z,15.60
2023-04-08T15:51:20.530Z,15.60
2023-04-08T15:53:47.352Z,15.60
2023-04-08T15:56:16.032Z,15.60
2023-04-08T15:58:43.247Z,15.60
2023-04-08T16:01:10.508Z,15.50
2023-04-08T16:03:37.384Z,15.70
2023-04-08T16:06:06.017Z,15.70
2023-04-08T16:08:34.813Z,15.60
2023-04-08T16:11:03.340Z,15.60
2023-04-08T16:13:30.892Z,15.60
2023-04-08T16:15:58.691Z,15.60
2023-04-08T16:18:26.055Z,15.50
2023-04-08T16:20:53.083Z,15.50
2023-04-08T16:23:22.033Z,15.50
2023-04-08T16:25:48.874Z,15.50
2023-04-08T16:28:16.303Z,15.40
2023-04-08T16:30:44.050Z,15.50
2023-04-08T16:33:11.845Z,15.30
2023-04-08T16:35:39.050Z,15.20
2023-04-08T16:38:06.415Z,15.20
2023-04-08T16:40:33.648Z,15.10
2023-04-08T16:43:01.123Z,15.00
2023-04-08T16:45:32.452Z,15.00
2023-04-08T16:48:00.475Z,14.90
2023-04-08T16:50:28.600Z,14.90
2023-04-08T16:52:55.858Z,14.80
2023-04-08T16:55:22.583Z,14.80
2023-04-08T16:57:49.575Z,14.70
2023-04-08T17:00:18.692Z,14.60
2023-04-08T17:02:47.331Z,14.50
2023-04-08T17:05:14.684Z,14.30
2023-04-08T17:07:41.760Z,14.20
2023-04-08T17:10:09.148Z,13.90
2023-04-08T17:15:03.846Z,13.70
2023-04-08T17:17:30.917Z,13.60
2023-04-08T17:19:58.215Z,13.70
2023-04-08T17:22:25.091Z,13.60
2023-04-08T17:24:51.945Z,13.50
2023-04-08T17:27:19.163Z,13.70
2023-04-08T17:29:46.167Z,13.50
2023-04-08T17:32:13.575Z,13.40
2023-04-08T17:34:41.071Z,13.40
2023-04-08T17:37:10.195Z,13.40
2023-04-08T17:39:40.912Z,13.40
2023-04-08T17:42:08.468Z,13.30
2023-04-08T17:44:35.480Z,12.80
2023-04-08T17:47:04.146Z,13.70
2023-04-08T17:49:31.678Z,13.30
2023-04-08T17:51:58.419Z,13.20
2023-04-08T17:54:25.238Z,13.10
2023-04-08T17:56:54.173Z,13.50
2023-04-08T17:59:20.965Z,12.60
2023-04-08T18:01:47.914Z,13.10
2023-04-08T18:04:14.986Z,13.00
2023-04-08T18:06:41.975Z,13.00
2023-04-08T18:09:08.845Z,12.80
2023-04-08T18:11:35.798Z,12.70
2023-04-08T18:14:02.566Z,12.90
2023-04-08T18:16:29.348Z,12.80
2023-04-08T18:18:56.111Z,12.20
2023-04-08T18:21:22.828Z,12.70
2023-04-08T18:23:50.437Z,13.30
2023-04-08T18:26:17.650Z,12.50
2023-04-08T18:28:44.650Z,12.40
2023-04-08T18:31:12.491Z,12.50
2023-04-08T18:33:39.328Z,12.30
2023-04-08T18:36:09.769Z,11.80
2023-04-08T18:41:04.845Z,12.10
2023-04-08T18:43:32.077Z,11.90
2023-04-08T18:45:59.513Z,11.90
2023-04-08T18:50:53.927Z,11.70
2023-04-08T18:53:22.653Z,11.60
2023-04-08T18:55:49.443Z,11.50
2023-04-08T18:58:16.263Z,11.60
2023-04-08T19:00:43.794Z,11.50
2023-04-08T19:03:11.073Z,11.50
2023-04-08T19:05:38.028Z,11.40
2023-04-08T19:08:05.179Z,10.90
2023-04-08T19:10:34.005Z,11.40
2023-04-08T19:13:02.627Z,11.50
2023-04-08T19:15:31.012Z,11.40
2023-04-08T19:17:59.356Z,11.40
2023-04-08T19:20:27.483Z,11.50
2023-04-08T19:22:56.090Z,11.30
2023-04-08T19:25:29.212Z,11.20
2023-04-08T19:28:03.043Z,10.90
2023-04-08T19:30:39.081Z,11.10
2023-04-08T19:33:08.759Z,11.40
2023-04-08T19:35:39.064Z,10.90
2023-04-08T19:38:09.112Z,10.90
2023-04-08T19:40:40.677Z,10.90
2023-04-08T19:43:08.820Z,11.00
2023-04-08T19:45:38.147Z,11.00
2023-04-08T19:48:05.266Z,11.00
2023-04-08T19:50:33.192Z,11.10
2023-04-08T19:53:06.453Z,11.00
2023-04-08T19:55:37.433Z,10.90
2023-04-08T19:58:05.892Z,11.00
2023-04-08T20:00:32.758Z,10.90
2023-04-08T20:03:02.472Z,10.90
2023-04-08T20:05:29.562Z,10.90
2023-04-08T20:07:56.442Z,10.80
2023-04-08T20:10:23.194Z,10.80
2023-04-08T20:12:49.962Z,10.80
2023-04-08T20:15:24.716Z,10.80
2023-04-08T20:17:53.331Z,10.90
2023-04-08T20:20:24.175Z,10.90
2023-04-08T20:22:51.175Z,10.90
2023-04-08T20:25:19.560Z,10.90
2023-04-08T20:27:49.321Z,11.00
2023-04-08T20:30:38.133Z,11.00
2023-04-08T20:33:05.069Z,10.90
2023-04-08T20:35:32.265Z,11.00
2023-04-08T20:37:59.630Z,10.80
2023-04-08T20:40:26.786Z,10.90
2023-04-08T20:42:53.907Z,10.80
2023-04-08T20:45:21.495Z,10.80
2023-04-08T20:47:48.759Z,10.70
2023-04-08T20:50:16.749Z,10.70
2023-04-08T20:52:43.530Z,10.70
2023-04-08T20:55:10.450Z,10.60
2023-04-08T20:57:38.422Z,10.60
2023-04-08T21:00:06.438Z,10.40
2023-04-08T21:02:33.796Z,10.40
2023-04-08T21:05:01.921Z,10.40
2023-04-08T21:07:33.324Z,10.40
2023-04-08T21:10:00.078Z,10.40
2023-04-08T21:12:26.813Z,10.40
2023-04-08T21:14:53.550Z,10.40
2023-04-08T21:17:21.413Z,10.40
2023-04-08T21:19:48.131Z,10.40
2023-04-08T21:22:16.436Z,10.40
2023-04-08T21:24:43.393Z,10.40
2023-04-08T21:27:10.391Z,10.40
2023-04-08T21:29:37.201Z,10.50
2023-04-08T21:32:05.420Z,10.50
2023-04-08T21:34:33.260Z,10.40
2023-04-08T21:37:01.220Z,10.50
2023-04-08T21:39:30.755Z,10.50
2023-04-08T21:41:57.631Z,10.60
2023-04-08T21:44:24.518Z,10.60
2023-04-08T21:46:56.786Z,10.60
2023-04-08T21:49:31.788Z,10.70
2023-04-08T21:51:58.684Z,10.70
2023-04-08T21:54:25.688Z,10.70
2023-04-08T21:56:52.635Z,10.70
2023-04-08T21:59:20.081Z,10.80
2023-04-08T22:01:46.878Z,10.90
2023-04-08T22:04:13.885Z,10.70
2023-04-08T22:06:41.169Z,10.60
2023-04-08T22:09:08.126Z,10.60
2023-04-08T22:11:34.903Z,10.60
2023-04-08T22:14:01.777Z,10.50
2023-04-08T22:16:28.637Z,10.50
2023-04-08T22:18:55.462Z,10.60
2023-04-08T22:21:22.695Z,10.60
2023-04-08T22:23:50.591Z,10.60
2023-04-08T22:26:17.345Z,10.60
2023-04-08T22:28:44.892Z,10.50
2023-04-08T22:31:12.793Z,10.50
2023-04-08T22:33:40.120Z,10.60
2023-04-08T22:36:07.159Z,10.50
2023-04-08T22:38:34.085Z,10.50
2023-04-08T22:41:01.013Z,10.50
2023-04-08T22:43:27.812Z,10.40
2023-04-08T22:45:54.704Z,10.40
2023-04-08T22:48:21.577Z,10.50
2023-04-08T22:50:48.411Z,10.50
2023-04-08T22:53:15.794Z,10.50
2023-04-08T22:55:42.679Z,10.50
2023-04-08T22:58:09.486Z,10.50
2023-04-08T23:00:37.158Z,10.50
2023-04-08T23:03:04.954Z,10.50
2023-04-08T23:05:32.343Z,10.50
2023-04-08T23:08:00.311Z,10.50
2023-04-08T23:10:28.230Z,10.50
2023-04-08T23:12:54.976Z,10.50
2023-04-08T23:15:21.728Z,10.50
2023-04-08T23:17:48.631Z,10.50
2023-04-08T23:20:15.619Z,10.40
2023-04-08T23:22:42.492Z,10.50
2023-04-08T23:25:09.975Z,10.40
2023-04-08T23:27:36.834Z,10.40
2023-04-08T23:30:05.759Z,10.40
2023-04-08T23:32:36.036Z,10.40
2023-04-08T23:35:03.124Z,10.40
2023-04-08T23:37:30.425Z,10.30
2023-04-08T23:39:57.410Z,10.40
2023-04-08T23:42:27.256Z,10.40
2023-04-08T23:44:55.272Z,10.40
2023-04-08T23:47:22.363Z,10.40
2023-04-08T23:49:49.284Z,10.40
2023-04-08T23:52:16.479Z,10.40
2023-04-08T23:54:43.310Z,10.40
2023-04-08T23:57:10.051Z,10.40
2023-04-08T23:59:36.896Z,10.40
